sensor_id;sensor_type;location;lat;lon;timestamp;pressure;altitude;pressure_sealevel;temperature;humidity
10474;BME280;5284;50.446;7.904;2023-05-21T00:04:43;98389.19;;;13.42;100.00
10474;BME280;5284;50.446;7.904;2023-05-21T00:09:46;98395.56;;;13.41;100.00
10474;BME280;5284;50.446;7.904;2023-05-21T00:14:50;98383.00;;;13.24;100.00
10474;BME280;5284;50.446;7.904;2023-05-21T00:19:53;98389.66;;;13.20;100.00
10474;BME280;5284;50.446;7.904;2023-05-21T00:24:57;98378.06;;;13.20;100.00
10474;BME280;5284;50.446;7.904;2023-05-21T00:30:01;98373.63;;;13.11;100.00
10474;BME280;5284;50.446;7.904;2023-05-21T00:35:05;98367.97;;;13.14;100.00
10474;BME280;5284;50.446;7.904;2023-05-21T00:40:09;98362.09;;;13.10;100.00
10474;BME280;5284;50.446;7.904;2023-05-21T00:45:14;98360.09;;;13.12;100.00
10474;BME280;5284;50.446;7.904;2023-05-21T00:50:17;98351.28;;;13.02;100.00
10474;BME280;5284;50.446;7.904;2023-05-21T00:55:20;98346.09;;;13.01;100.00
10474;BME280;5284;50.446;7.904;2023-05-21T01:00:24;98343.03;;;12.96;100.00
10474;BME280;5284;50.446;7.904;2023-05-21T01:05:28;98341.59;;;12.92;100.00
10474;BME280;5284;50.446;7.904;2023-05-21T01:10:31;98339.06;;;12.90;100.00
10474;BME280;5284;50.446;7.904;2023-05-21T01:15:35;98342.88;;;12.88;100.00
10474;BME280;5284;50.446;7.904;2023-05-21T01:20:39;98338.50;;;12.87;100.00
10474;BME280;5284;50.446;7.904;2023-05-21T01:25:44;98334.84;;;12.88;100.00
10474;BME280;5284;50.446;7.904;2023-05-21T01:30:47;98341.88;;;12.89;100.00
10474;BME280;5284;50.446;7.904;2023-05-21T01:36:03;98330.94;;;12.82;100.00
10474;BME280;5284;50.446;7.904;2023-05-21T01:41:10;98327.56;;;12.80;100.00
10474;BME280;5284;50.446;7.904;2023-05-21T01:46:17;98334.75;;;12.80;100.00
10474;BME280;5284;50.446;7.904;2023-05-21T01:51:21;98334.75;;;12.80;100.00
10474;BME280;5284;50.446;7.904;2023-05-21T01:56:26;98333.50;;;12.74;100.00
10474;BME280;5284;50.446;7.904;2023-05-21T02:01:29;98321.13;;;12.73;100.00
10474;BME280;5284;50.446;7.904;2023-05-21T02:06:32;98325.63;;;12.73;100.00
10474;BME280;5284;50.446;7.904;2023-05-21T02:11:37;98330.31;;;12.71;100.00
10474;BME280;5284;50.446;7.904;2023-05-21T02:16:40;98315.75;;;12.73;100.00
10474;BME280;5284;50.446;7.904;2023-05-21T02:21:43;98316.63;;;12.74;100.00
10474;BME280;5284;50.446;7.904;2023-05-21T02:26:48;98311.88;;;12.68;100.00
10474;BME280;5284;50.446;7.904;2023-05-21T02:31:50;98310.09;;;12.59;100.00
10474;BME280;5284;50.446;7.904;2023-05-21T02:36:53;98298.66;;;12.57;100.00
10474;BME280;5284;50.446;7.904;2023-05-21T02:41:57;98298.97;;;12.54;100.00
10474;BME280;5284;50.446;7.904;2023-05-21T02:47:00;98301.41;;;12.47;100.00
10474;BME280;5284;50.446;7.904;2023-05-21T02:52:04;98300.94;;;12.52;100.00
10474;BME280;5284;50.446;7.904;2023-05-21T02:57:08;98305.78;;;12.48;100.00
10474;BME280;5284;50.446;7.904;2023-05-21T03:02:11;98312.81;;;12.49;100.00
10474;BME280;5284;50.446;7.904;2023-05-21T03:07:14;98311.13;;;12.48;100.00
10474;BME280;5284;50.446;7.904;2023-05-21T03:12:20;98305.78;;;12.48;100.00
10474;BME280;5284;50.446;7.904;2023-05-21T03:17:23;98307.19;;;12.43;100.00
10474;BME280;5284;50.446;7.904;2023-05-21T03:22:27;98295.81;;;12.41;100.00
10474;BME280;5284;50.446;7.904;2023-05-21T03:27:31;98301.84;;;12.43;100.00
10474;BME280;5284;50.446;7.904;2023-05-21T03:32:37;98296.50;;;12.43;100.00
10474;BME280;5284;50.446;7.904;2023-05-21T03:37:42;98298.19;;;12.44;100.00
10474;BME280;5284;50.446;7.904;2023-05-21T03:42:46;98297.63;;;12.40;100.00
10474;BME280;5284;50.446;7.904;2023-05-21T03:47:50;98295.69;;;12.42;100.00
10474;BME280;5284;50.446;7.904;2023-05-21T03:52:53;98295.38;;;12.45;100.00
10474;BME280;5284;50.446;7.904;2023-05-21T03:57:57;98292.84;;;12.44;100.00
10474;BME280;5284;50.446;7.904;2023-05-21T04:03:01;98300.72;;;12.45;100.00
10474;BME280;5284;50.446;7.904;2023-05-21T04:08:04;98294.22;;;12.48;100.00
10474;BME280;5284;50.446;7.904;2023-05-21T04:13:08;98299.44;;;12.49;100.00
10474;BME280;5284;50.446;7.904;2023-05-21T04:18:11;98295.59;;;12.52;100.00
10474;BME280;5284;50.446;7.904;2023-05-21T04:23:16;98302.06;;;12.59;100.00
10474;BME280;5284;50.446;7.904;2023-05-21T04:28:21;98303.28;;;12.64;100.00
10474;BME280;5284;50.446;7.904;2023-05-21T04:33:25;98296.66;;;12.68;100.00
10474;BME280;5284;50.446;7.904;2023-05-21T04:38:29;98301.56;;;12.73;100.00
10474;BME280;5284;50.446;7.904;2023-05-21T04:43:33;98304.63;;;12.78;100.00
10474;BME280;5284;50.446;7.904;2023-05-21T04:48:36;98308.59;;;12.74;100.00
10474;BME280;5284;50.446;7.904;2023-05-21T04:53:39;98308.38;;;12.85;100.00
10474;BME280;5284;50.446;7.904;2023-05-21T04:58:44;98316.53;;;12.93;100.00
10474;BME280;5284;50.446;7.904;2023-05-21T05:03:48;98316.84;;;13.07;100.00
10474;BME280;5284;50.446;7.904;2023-05-21T05:08:52;98321.94;;;13.28;100.00
10474;BME280;5284;50.446;7.904;2023-05-21T05:13:56;98320.72;;;13.40;100.00
10474;BME280;5284;50.446;7.904;2023-05-21T05:18:59;98318.47;;;13.53;100.00
10474;BME280;5284;50.446;7.904;2023-05-21T05:24:03;98315.19;;;13.59;100.00
10474;BME280;5284;50.446;7.904;2023-05-21T05:29:07;98301.94;;;13.74;100.00
10474;BME280;5284;50.446;7.904;2023-05-21T05:34:10;98307.88;;;13.86;100.00
10474;BME280;5284;50.446;7.904;2023-05-21T05:39:15;98307.66;;;14.05;100.00
10474;BME280;5284;50.446;7.904;2023-05-21T05:44:21;98309.13;;;14.17;100.00
10474;BME280;5284;50.446;7.904;2023-05-21T05:49:24;98310.81;;;14.18;100.00
10474;BME280;5284;50.446;7.904;2023-05-21T05:54:27;98316.63;;;14.39;100.00
10474;BME280;5284;50.446;7.904;2023-05-21T05:59:32;98309.06;;;14.68;100.00
10474;BME280;5284;50.446;7.904;2023-05-21T06:04:35;98301.59;;;14.95;100.00
10474;BME280;5284;50.446;7.904;2023-05-21T06:09:38;98299.69;;;15.29;100.00
10474;BME280;5284;50.446;7.904;2023-05-21T06:14:42;98302.75;;;15.50;100.00
10474;BME280;5284;50.446;7.904;2023-05-21T06:19:47;98308.81;;;15.68;100.00
10474;BME280;5284;50.446;7.904;2023-05-21T06:24:49;98307.97;;;15.83;100.00
10474;BME280;5284;50.446;7.904;2023-05-21T06:29:54;98308.28;;;16.04;100.00
10474;BME280;5284;50.446;7.904;2023-05-21T06:34:57;98305.78;;;16.03;100.00
10474;BME280;5284;50.446;7.904;2023-05-21T06:40:00;98312.28;;;16.32;100.00
10474;BME280;5284;50.446;7.904;2023-05-21T06:45:08;98303.16;;;16.49;100.00
10474;BME280;5284;50.446;7.904;2023-05-21T06:50:12;98312.38;;;16.63;100.00
10474;BME280;5284;50.446;7.904;2023-05-21T06:55:17;98312.03;;;16.74;100.00
10474;BME280;5284;50.446;7.904;2023-05-21T07:00:41;98305.72;;;16.89;100.00
10474;BME280;5284;50.446;7.904;2023-05-21T07:05:46;98306.41;;;16.91;100.00
10474;BME280;5284;50.446;7.904;2023-05-21T07:10:49;98310.50;;;17.09;100.00
10474;BME280;5284;50.446;7.904;2023-05-21T07:15:53;98312.75;;;17.28;100.00
10474;BME280;5284;50.446;7.904;2023-05-21T07:20:58;98308.69;;;17.40;100.00
10474;BME280;5284;50.446;7.904;2023-05-21T07:26:02;98313.28;;;17.54;100.00
10474;BME280;5284;50.446;7.904;2023-05-21T07:31:08;98315.03;;;17.70;100.00
10474;BME280;5284;50.446;7.904;2023-05-21T07:36:17;98304.50;;;17.97;100.00
10474;BME280;5284;50.446;7.904;2023-05-21T07:41:20;98305.78;;;18.24;100.00
10474;BME280;5284;50.446;7.904;2023-05-21T07:46:26;98296.91;;;18.15;100.00
10474;BME280;5284;50.446;7.904;2023-05-21T07:51:31;98302.56;;;18.43;100.00
10474;BME280;5284;50.446;7.904;2023-05-21T07:56:34;98298.09;;;18.49;100.00
10474;BME280;5284;50.446;7.904;2023-05-21T08:01:41;98302.09;;;18.68;100.00
10474;BME280;5284;50.446;7.904;2023-05-21T08:06:44;98293.59;;;18.85;100.00
10474;BME280;5284;50.446;7.904;2023-05-21T08:11:49;98294.25;;;19.02;97.70
10474;BME280;5284;50.446;7.904;2023-05-21T08:16:53;98301.16;;;19.19;97.29
10474;BME280;5284;50.446;7.904;2023-05-21T08:21:57;98301.50;;;19.51;94.41
10474;BME280;5284;50.446;7.904;2023-05-21T08:27:00;98291.94;;;20.12;92.60
10474;BME280;5284;50.446;7.904;2023-05-21T08:32:07;98290.09;;;20.46;91.24
10474;BME280;5284;50.446;7.904;2023-05-21T08:37:11;98284.63;;;20.73;88.32
10474;BME280;5284;50.446;7.904;2023-05-21T08:42:50;98288.63;;;21.18;86.42
10474;BME280;5284;50.446;7.904;2023-05-21T08:48:02;98282.47;;;21.50;83.89
10474;BME280;5284;50.446;7.904;2023-05-21T08:53:08;98281.72;;;21.94;84.04
10474;BME280;5284;50.446;7.904;2023-05-21T08:58:28;98285.72;;;21.85;83.12
10474;BME280;5284;50.446;7.904;2023-05-21T09:03:36;98292.19;;;21.84;81.64
10474;BME280;5284;50.446;7.904;2023-05-21T09:08:44;98281.13;;;21.99;81.80
10474;BME280;5284;50.446;7.904;2023-05-21T09:13:59;98279.63;;;22.81;80.35
10474;BME280;5284;50.446;7.904;2023-05-21T09:19:20;98277.84;;;23.56;74.72
10474;BME280;5284;50.446;7.904;2023-05-21T09:24:24;98279.56;;;24.12;73.10
10474;BME280;5284;50.446;7.904;2023-05-21T09:29:27;98274.59;;;24.58;73.05
10474;BME280;5284;50.446;7.904;2023-05-21T09:34:34;98274.91;;;24.44;70.61
10474;BME280;5284;50.446;7.904;2023-05-21T09:39:39;98278.38;;;24.75;66.25
10474;BME280;5284;50.446;7.904;2023-05-21T09:44:43;98272.97;;;25.29;68.31
10474;BME280;5284;50.446;7.904;2023-05-21T09:49:48;98274.75;;;25.64;66.69
10474;BME280;5284;50.446;7.904;2023-05-21T09:54:51;98273.97;;;24.56;68.38
10474;BME280;5284;50.446;7.904;2023-05-21T09:59:54;98265.38;;;24.95;67.14
10474;BME280;5284;50.446;7.904;2023-05-21T10:05:00;98257.91;;;25.38;66.04
10474;BME280;5284;50.446;7.904;2023-05-21T10:10:06;98247.63;;;26.22;61.56
10474;BME280;5284;50.446;7.904;2023-05-21T10:15:22;98240.50;;;26.21;58.99
10474;BME280;5284;50.446;7.904;2023-05-21T10:20:28;98238.22;;;25.77;60.96
10474;BME280;5284;50.446;7.904;2023-05-21T10:25:31;98236.56;;;26.28;58.54
10474;BME280;5284;50.446;7.904;2023-05-21T10:30:36;98238.19;;;25.95;56.99
10474;BME280;5284;50.446;7.904;2023-05-21T10:35:41;98235.03;;;26.44;60.98
10474;BME280;5284;50.446;7.904;2023-05-21T10:40:48;98227.16;;;26.24;54.13
10474;BME280;5284;50.446;7.904;2023-05-21T10:46:06;98224.22;;;26.49;56.59
10474;BME280;5284;50.446;7.904;2023-05-21T10:51:19;98213.88;;;26.51;57.10
10474;BME280;5284;50.446;7.904;2023-05-21T10:56:28;98207.19;;;26.81;57.23
10474;BME280;5284;50.446;7.904;2023-05-21T11:01:35;98202.91;;;26.28;55.40
10474;BME280;5284;50.446;7.904;2023-05-21T11:06:45;98200.28;;;27.29;52.29
10474;BME280;5284;50.446;7.904;2023-05-21T11:11:50;98200.38;;;27.62;52.28
10474;BME280;5284;50.446;7.904;2023-05-21T11:16:53;98201.19;;;27.63;51.43
10474;BME280;5284;50.446;7.904;2023-05-21T11:21:59;98200.25;;;27.85;52.12
10474;BME280;5284;50.446;7.904;2023-05-21T11:27:02;98189.09;;;27.19;50.36
10474;BME280;5284;50.446;7.904;2023-05-21T11:32:07;98189.09;;;27.47;51.91
10474;BME280;5284;50.446;7.904;2023-05-21T11:37:29;98195.34;;;27.03;53.23
10474;BME280;5284;50.446;7.904;2023-05-21T11:42:38;98190.00;;;26.97;50.39
10474;BME280;5284;50.446;7.904;2023-05-21T11:47:43;98186.47;;;26.73;53.19
10474;BME280;5284;50.446;7.904;2023-05-21T11:52:49;98190.84;;;26.97;51.52
10474;BME280;5284;50.446;7.904;2023-05-21T11:57:52;98193.03;;;26.72;52.18
10474;BME280;5284;50.446;7.904;2023-05-21T12:02:56;98199.56;;;27.50;51.24
10474;BME280;5284;50.446;7.904;2023-05-21T12:08:02;98202.66;;;27.54;50.63
10474;BME280;5284;50.446;7.904;2023-05-21T12:13:09;98201.06;;;28.68;50.98
10474;BME280;5284;50.446;7.904;2023-05-21T12:18:13;98204.00;;;29.21;48.81
10474;BME280;5284;50.446;7.904;2023-05-21T12:23:19;98202.72;;;29.50;46.51
10474;BME280;5284;50.446;7.904;2023-05-21T12:28:22;98198.81;;;29.24;47.16
10474;BME280;5284;50.446;7.904;2023-05-21T12:33:32;98206.00;;;30.67;46.51
10474;BME280;5284;50.446;7.904;2023-05-21T12:38:37;98207.34;;;30.28;46.96
10474;BME280;5284;50.446;7.904;2023-05-21T12:43:40;98210.47;;;30.78;44.32
10474;BME280;5284;50.446;7.904;2023-05-21T12:48:52;98202.22;;;30.78;44.20
10474;BME280;5284;50.446;7.904;2023-05-21T12:53:57;98204.19;;;30.51;43.52
10474;BME280;5284;50.446;7.904;2023-05-21T12:59:03;98192.75;;;32.32;42.09
10474;BME280;5284;50.446;7.904;2023-05-21T13:04:06;98191.22;;;30.88;43.74
10474;BME280;5284;50.446;7.904;2023-05-21T13:09:10;98191.34;;;31.08;43.45
10474;BME280;5284;50.446;7.904;2023-05-21T13:14:13;98201.00;;;32.62;41.44
10474;BME280;5284;50.446;7.904;2023-05-21T13:19:16;98195.22;;;32.03;43.27
10474;BME280;5284;50.446;7.904;2023-05-21T13:24:21;98189.47;;;32.40;43.38
10474;BME280;5284;50.446;7.904;2023-05-21T13:29:23;98188.31;;;33.54;41.48
10474;BME280;5284;50.446;7.904;2023-05-21T13:34:26;98171.50;;;33.40;41.39
10474;BME280;5284;50.446;7.904;2023-05-21T13:39:30;98172.34;;;33.84;39.91
10474;BME280;5284;50.446;7.904;2023-05-21T13:44:34;98169.47;;;34.61;39.72
10474;BME280;5284;50.446;7.904;2023-05-21T13:49:37;98170.78;;;36.50;37.73
10474;BME280;5284;50.446;7.904;2023-05-21T13:54:42;98174.97;;;37.73;35.84
10474;BME280;5284;50.446;7.904;2023-05-21T13:59:45;98165.00;;;33.07;40.69
10474;BME280;5284;50.446;7.904;2023-05-21T14:04:49;98165.13;;;30.54;44.72
10474;BME280;5284;50.446;7.904;2023-05-21T14:09:53;98158.72;;;31.52;43.09
10474;BME280;5284;50.446;7.904;2023-05-21T14:14:56;98162.34;;;34.55;39.32
10474;BME280;5284;50.446;7.904;2023-05-21T14:19:59;98159.00;;;33.43;40.81
10474;BME280;5284;50.446;7.904;2023-05-21T14:25:04;98153.34;;;34.40;39.96
10474;BME280;5284;50.446;7.904;2023-05-21T14:30:10;98159.72;;;33.05;40.23
10474;BME280;5284;50.446;7.904;2023-05-21T14:35:14;98157.06;;;32.75;41.71
10474;BME280;5284;50.446;7.904;2023-05-21T14:40:18;98157.91;;;32.76;41.69
10474;BME280;5284;50.446;7.904;2023-05-21T14:45:21;98161.03;;;33.28;40.50
10474;BME280;5284;50.446;7.904;2023-05-21T14:50:24;98164.03;;;32.68;40.53
10474;BME280;5284;50.446;7.904;2023-05-21T14:55:28;98162.75;;;33.14;39.99
10474;BME280;5284;50.446;7.904;2023-05-21T15:00:37;98150.25;;;32.18;41.64
10474;BME280;5284;50.446;7.904;2023-05-21T15:05:40;98141.06;;;31.62;42.04
10474;BME280;5284;50.446;7.904;2023-05-21T15:10:44;98144.28;;;31.15;43.40
10474;BME280;5284;50.446;7.904;2023-05-21T15:15:48;98142.09;;;31.27;44.23
10474;BME280;5284;50.446;7.904;2023-05-21T15:20:51;98146.72;;;30.23;44.34
10474;BME280;5284;50.446;7.904;2023-05-21T15:25:56;98149.31;;;30.40;43.99
10474;BME280;5284;50.446;7.904;2023-05-21T15:30:59;98144.88;;;30.70;44.87
10474;BME280;5284;50.446;7.904;2023-05-21T15:36:02;98142.63;;;31.14;44.72
10474;BME280;5284;50.446;7.904;2023-05-21T15:41:06;98141.44;;;29.06;47.07
10474;BME280;5284;50.446;7.904;2023-05-21T15:46:10;98144.91;;;28.75;48.54
10474;BME280;5284;50.446;7.904;2023-05-21T15:51:14;98136.81;;;27.65;50.33
10474;BME280;5284;50.446;7.904;2023-05-21T15:56:20;98129.66;;;27.76;50.39
10474;BME280;5284;50.446;7.904;2023-05-21T16:01:24;98130.38;;;28.80;48.35
10474;BME280;5284;50.446;7.904;2023-05-21T16:06:29;98125.09;;;29.43;47.32
10474;BME280;5284;50.446;7.904;2023-05-21T16:11:35;98127.50;;;28.70;49.34
10474;BME280;5284;50.446;7.904;2023-05-21T16:16:37;98128.34;;;29.13;49.27
10474;BME280;5284;50.446;7.904;2023-05-21T16:21:42;98126.66;;;29.91;46.98
10474;BME280;5284;50.446;7.904;2023-05-21T16:26:46;98121.34;;;32.94;42.15
10474;BME280;5284;50.446;7.904;2023-05-21T16:31:50;98126.13;;;35.96;37.26
10474;BME280;5284;50.446;7.904;2023-05-21T16:36:53;98130.72;;;39.85;33.31
10474;BME280;5284;50.446;7.904;2023-05-21T16:42:00;98139.53;;;39.05;34.44
10474;BME280;5284;50.446;7.904;2023-05-21T16:47:03;98146.28;;;38.74;33.86
10474;BME280;5284;50.446;7.904;2023-05-21T16:52:07;98133.53;;;37.09;34.76
10474;BME280;5284;50.446;7.904;2023-05-21T16:57:11;98122.88;;;35.15;37.42
10474;BME280;5284;50.446;7.904;2023-05-21T17:02:14;98124.34;;;33.02;40.27
10474;BME280;5284;50.446;7.904;2023-05-21T17:07:19;98127.84;;;34.09;38.90
10474;BME280;5284;50.446;7.904;2023-05-21T17:12:23;98129.81;;;34.66;39.27
10474;BME280;5284;50.446;7.904;2023-05-21T17:17:26;98139.22;;;35.77;37.44
10474;BME280;5284;50.446;7.904;2023-05-21T17:22:29;98139.25;;;34.88;38.20
10474;BME280;5284;50.446;7.904;2023-05-21T17:27:34;98143.63;;;31.03;43.75
10474;BME280;5284;50.446;7.904;2023-05-21T17:32:37;98130.63;;;29.74;45.78
10474;BME280;5284;50.446;7.904;2023-05-21T17:37:41;98139.13;;;29.20;46.96
10474;BME280;5284;50.446;7.904;2023-05-21T17:42:45;98136.28;;;28.88;47.96
10474;BME280;5284;50.446;7.904;2023-05-21T17:47:49;98141.91;;;28.39;48.88
10474;BME280;5284;50.446;7.904;2023-05-21T17:52:53;98144.44;;;28.08;49.90
10474;BME280;5284;50.446;7.904;2023-05-21T17:57:58;98135.53;;;27.84;50.71
10474;BME280;5284;50.446;7.904;2023-05-21T18:03:00;98133.25;;;27.65;51.04
10474;BME280;5284;50.446;7.904;2023-05-21T18:08:03;98134.53;;;27.29;52.02
10474;BME280;5284;50.446;7.904;2023-05-21T18:13:09;98138.59;;;26.87;54.00
10474;BME280;5284;50.446;7.904;2023-05-21T18:18:14;98145.94;;;26.59;54.79
10474;BME280;5284;50.446;7.904;2023-05-21T18:23:22;98140.00;;;26.16;55.82
10474;BME280;5284;50.446;7.904;2023-05-21T18:28:30;98140.78;;;25.82;57.15
10474;BME280;5284;50.446;7.904;2023-05-21T18:33:34;98134.66;;;25.46;59.52
10474;BME280;5284;50.446;7.904;2023-05-21T18:38:40;98132.44;;;24.95;63.29
10474;BME280;5284;50.446;7.904;2023-05-21T18:43:44;98131.34;;;24.67;65.10
10474;BME280;5284;50.446;7.904;2023-05-21T18:48:47;98141.41;;;24.31;67.59
10474;BME280;5284;50.446;7.904;2023-05-21T18:53:50;98132.72;;;23.98;68.93
10474;BME280;5284;50.446;7.904;2023-05-21T18:58:55;98131.66;;;23.50;74.33
10474;BME280;5284;50.446;7.904;2023-05-21T19:03:59;98131.50;;;23.08;80.10
10474;BME280;5284;50.446;7.904;2023-05-21T19:09:03;98132.75;;;22.81;76.76
10474;BME280;5284;50.446;7.904;2023-05-21T19:14:08;98129.31;;;22.35;82.37
10474;BME280;5284;50.446;7.904;2023-05-21T19:19:11;98132.97;;;22.16;81.42
10474;BME280;5284;50.446;7.904;2023-05-21T19:24:14;98138.84;;;21.80;86.33
10474;BME280;5284;50.446;7.904;2023-05-21T19:29:21;98138.00;;;21.54;86.72
10474;BME280;5284;50.446;7.904;2023-05-21T19:34:23;98135.69;;;21.19;91.29
10474;BME280;5284;50.446;7.904;2023-05-21T19:39:29;98145.84;;;20.97;91.74
10474;BME280;5284;50.446;7.904;2023-05-21T19:44:34;98151.78;;;20.73;95.27
10474;BME280;5284;50.446;7.904;2023-05-21T19:49:37;98157.94;;;20.41;99.68
10474;BME280;5284;50.446;7.904;2023-05-21T19:54:40;98163.22;;;20.15;100.00
10474;BME280;5284;50.446;7.904;2023-05-21T19:59:44;98158.84;;;20.21;97.39
10474;BME280;5284;50.446;7.904;2023-05-21T20:04:49;98155.84;;;20.03;100.00
10474;BME280;5284;50.446;7.904;2023-05-21T20:09:53;98168.81;;;19.87;100.00
10474;BME280;5284;50.446;7.904;2023-05-21T20:14:58;98167.44;;;19.70;100.00
10474;BME280;5284;50.446;7.904;2023-05-21T20:20:01;98160.88;;;19.58;100.00
10474;BME280;5284;50.446;7.904;2023-05-21T20:25:11;98171.88;;;19.29;100.00
10474;BME280;5284;50.446;7.904;2023-05-21T20:30:17;98171.75;;;19.16;100.00
10474;BME280;5284;50.446;7.904;2023-05-21T20:35:21;98173.94;;;19.12;100.00
10474;BME280;5284;50.446;7.904;2023-05-21T20:40:26;98170.66;;;18.96;100.00
10474;BME280;5284;50.446;7.904;2023-05-21T20:45:30;98177.03;;;18.88;100.00
10474;BME280;5284;50.446;7.904;2023-05-21T20:50:34;98177.72;;;18.76;100.00
10474;BME280;5284;50.446;7.904;2023-05-21T20:55:39;98175.75;;;18.70;100.00
10474;BME280;5284;50.446;7.904;2023-05-21T21:00:46;98168.41;;;18.64;100.00
10474;BME280;5284;50.446;7.904;2023-05-21T21:05:50;98169.75;;;18.53;100.00
10474;BME280;5284;50.446;7.904;2023-05-21T21:10:57;98173.13;;;18.41;100.00
10474;BME280;5284;50.446;7.904;2023-05-21T21:16:01;98183.09;;;18.26;100.00
10474;BME280;5284;50.446;7.904;2023-05-21T21:21:04;98178.97;;;18.16;100.00
10474;BME280;5284;50.446;7.904;2023-05-21T21:26:07;98174.03;;;18.05;100.00
10474;BME280;5284;50.446;7.904;2023-05-21T21:31:11;98173.56;;;17.87;100.00
10474;BME280;5284;50.446;7.904;2023-05-21T21:36:14;98176.44;;;17.85;100.00
10474;BME280;5284;50.446;7.904;2023-05-21T21:41:17;98172.72;;;17.72;100.00
10474;BME280;5284;50.446;7.904;2023-05-21T21:46:23;98171.66;;;17.58;100.00
10474;BME280;5284;50.446;7.904;2023-05-21T21:51:27;98167.38;;;17.49;100.00
10474;BME280;5284;50.446;7.904;2023-05-21T21:56:30;98164.25;;;17.38;100.00
10474;BME280;5284;50.446;7.904;2023-05-21T22:01:34;98164.81;;;17.33;100.00
10474;BME280;5284;50.446;7.904;2023-05-21T22:06:37;98171.91;;;17.26;100.00
10474;BME280;5284;50.446;7.904;2023-05-21T22:11:40;98174.69;;;17.18;100.00
10474;BME280;5284;50.446;7.904;2023-05-21T22:16:44;98170.19;;;17.11;100.00
10474;BME280;5284;50.446;7.904;2023-05-21T22:21:49;98164.38;;;16.99;100.00
10474;BME280;5284;50.446;7.904;2023-05-21T22:26:51;98164.91;;;16.95;100.00
10474;BME280;5284;50.446;7.904;2023-05-21T22:31:55;98163.59;;;16.91;100.00
10474;BME280;5284;50.446;7.904;2023-05-21T22:36:58;98173.09;;;16.79;100.00
10474;BME280;5284;50.446;7.904;2023-05-21T22:42:02;98168.13;;;16.68;100.00
10474;BME280;5284;50.446;7.904;2023-05-21T22:47:06;98167.97;;;16.62;100.00
10474;BME280;5284;50.446;7.904;2023-05-21T22:52:10;98176.78;;;16.56;100.00
10474;BME280;5284;50.446;7.904;2023-05-21T22:57:15;98172.94;;;16.50;100.00
10474;BME280;5284;50.446;7.904;2023-05-21T23:02:19;98170.63;;;16.39;100.00
10474;BME280;5284;50.446;7.904;2023-05-21T23:07:22;98170.44;;;16.33;100.00
10474;BME280;5284;50.446;7.904;2023-05-21T23:12:25;98178.22;;;16.28;100.00
10474;BME280;5284;50.446;7.904;2023-05-21T23:17:29;98174.56;;;16.21;100.00
10474;BME280;5284;50.446;7.904;2023-05-21T23:22:32;98169.91;;;16.07;100.00
10474;BME280;5284;50.446;7.904;2023-05-21T23:27:35;98163.72;;;15.98;100.00
10474;BME280;5284;50.446;7.904;2023-05-21T23:32:39;98161.88;;;15.91;100.00
10474;BME280;5284;50.446;7.904;2023-05-21T23:37:42;98164.75;;;15.89;100.00
10474;BME280;5284;50.446;7.904;2023-05-21T23:42:45;98173.53;;;15.83;100.00
10474;BME280;5284;50.446;7.904;2023-05-21T23:47:49;98167.97;;;15.77;100.00
10474;BME280;5284;50.446;7.904;2023-05-21T23:52:52;98167.16;;;15.68;100.00
10474;BME280;5284;50.446;7.904;2023-05-21T23:57:55;98174.53;;;15.66;100.00
